Time;durP1;ratioP1;P1;durP2;ratioP2;P2;SDS_P1;SDS_P2;PMS_P1;PMS_P2;Temp;Humidity;BMP_temperature;BMP_pressure;BME280_temperature;BME280_humidity;BME280_pressure;Samples;Min_cycle;Max_cycle;Signal;HPM_P1;HPM_P2
2023/01/03 00:03:48;;;;;;;9.27;7.25;;;;;;;;;;10274491;28;20089;-66
2023/01/03 00:08:48;;;;;;;7.90;6.10;;;;;;;;;;10273239;28;20072;-66
2023/01/03 00:13:46;;;;;;;7.47;6.70;;;;;;;;;;10274743;28;20060;-66
2023/01/03 00:18:44;;;;;;;7.90;6.97;;;;;;;;;;10276751;28;20495;-66
2023/01/03 00:23:42;;;;;;;8.88;6.63;;;;;;;;;;10275232;28;20091;-67
2023/01/03 00:28:42;;;;;;;9.13;6.80;;;;;;;;;;10275954;28;20083;-66
2023/01/03 00:33:40;;;;;;;8.88;6.78;;;;;;;;;;10258134;28;20508;-67
2023/01/03 00:38:38;;;;;;;8.60;6.57;;;;;;;;;;10270883;28;20446;-67
2023/01/03 00:43:37;;;;;;;10.43;7.40;;;;;;;;;;10265063;28;20493;-67
2023/01/03 00:48:37;;;;;;;7.78;6.80;;;;;;;;;;10272899;28;20049;-66
2023/01/03 00:53:35;;;;;;;7.38;6.60;;;;;;;;;;10273482;28;20052;-67
2023/01/03 00:58:34;;;;;;;8.80;7.22;;;;;;;;;;10273298;28;20052;-67
2023/01/03 01:03:33;;;;;;;8.68;7.10;;;;;;;;;;10273285;28;20080;-66
2023/01/03 01:08:32;;;;;;;7.63;6.82;;;;;;;;;;10273022;28;20443;-66
2023/01/03 01:13:31;;;;;;;8.50;7.60;;;;;;;;;;10272071;28;20080;-66
2023/01/03 01:18:29;;;;;;;8.68;6.97;;;;;;;;;;10273232;28;20053;-66
2023/01/03 01:23:27;;;;;;;8.90;7.15;;;;;;;;;;10259529;28;20115;-66
2023/01/03 01:28:27;;;;;;;8.32;7.30;;;;;;;;;;10269136;28;20405;-66
2023/01/03 01:33:25;;;;;;;10.60;8.07;;;;;;;;;;10266392;28;20041;-66
2023/01/03 01:38:24;;;;;;;9.45;8.55;;;;;;;;;;10268950;28;20049;-66
2023/01/03 01:48:41;;;;;;;9.40;7.63;;;;;;;;;;10268744;28;20166;-66
2023/01/03 01:53:41;;;;;;;8.25;7.25;;;;;;;;;;10268951;28;20040;-66
2023/01/03 01:58:41;;;;;;;8.52;7.47;;;;;;;;;;10268121;28;20497;-66
2023/01/03 02:03:42;;;;;;;8.65;7.75;;;;;;;;;;10250414;28;20056;-67
2023/01/03 02:08:40;;;;;;;9.57;8.07;;;;;;;;;;10272895;28;20076;-66
2023/01/03 02:13:42;;;;;;;10.15;8.18;;;;;;;;;;10271987;28;20091;-67
2023/01/03 02:18:45;;;;;;;10.00;7.95;;;;;;;;;;10272099;28;20045;-66
2023/01/03 02:23:51;;;;;;;10.57;8.70;;;;;;;;;;10270654;28;20091;-66
2023/01/03 02:29:01;;;;;;;10.52;7.45;;;;;;;;;;10270028;28;20056;-67
2023/01/03 02:34:03;;;;;;;8.68;7.65;;;;;;;;;;10271183;28;20072;-66
2023/01/03 02:39:04;;;;;;;10.50;8.38;;;;;;;;;;10268738;28;20148;-67
2023/01/03 02:44:05;;;;;;;9.18;8.15;;;;;;;;;;10269071;28;20072;-67
2023/01/03 02:49:07;;;;;;;10.65;8.43;;;;;;;;;;10269135;28;20060;-67
2023/01/03 02:54:07;;;;;;;9.32;8.15;;;;;;;;;;10268561;28;20490;-67
2023/01/03 02:59:08;;;;;;;10.90;7.90;;;;;;;;;;10264943;28;20079;-67
2023/01/03 03:04:08;;;;;;;9.55;7.85;;;;;;;;;;10265945;28;20080;-67
2023/01/03 03:09:06;;;;;;;9.52;8.63;;;;;;;;;;10267390;28;20182;-67
2023/01/03 03:14:06;;;;;;;30.10;18.95;;;;;;;;;;10269539;28;20091;-67
2023/01/03 03:24:48;;;;;;;9.45;7.22;;;;;;;;;;10270558;28;20045;-67
2023/01/03 03:24:50;;;;;;;10.02;6.93;;;;;;;;;;10269875;28;20076;-67
2023/01/03 03:29:49;;;;;;;12.00;8.77;;;;;;;;;;10269857;28;20071;-67
2023/01/03 03:34:49;;;;;;;10.57;7.80;;;;;;;;;;10269656;28;20072;-67
2023/01/03 03:45:07;;;;;;;9.50;7.38;;;;;;;;;;10257498;28;20037;-68
2023/01/03 03:50:10;;;;;;;8.95;7.97;;;;;;;;;;10272580;28;20072;-68
2023/01/03 03:55:12;;;;;;;7.93;7.13;;;;;;;;;;10266157;28;20378;-67
2023/01/03 04:00:13;;;;;;;8.80;7.60;;;;;;;;;;10272750;28;20457;-65
2023/01/03 04:05:14;;;;;;;9.85;7.68;;;;;;;;;;10264066;28;20465;-66
2023/01/03 04:10:13;;;;;;;10.25;8.30;;;;;;;;;;10271471;28;20052;-66
2023/01/03 04:15:11;;;;;;;11.40;8.90;;;;;;;;;;10276053;28;20052;-67
2023/01/03 04:20:10;;;;;;;10.88;9.57;;;;;;;;;;10274415;28;20422;-67
2023/01/03 04:25:10;;;;;;;11.23;8.50;;;;;;;;;;10272818;28;20052;-67
2023/01/03 04:30:10;;;;;;;11.75;8.73;;;;;;;;;;10275046;28;20076;-66
2023/01/03 04:35:08;;;;;;;10.75;8.88;;;;;;;;;;10262185;28;20049;-66
2023/01/03 04:40:07;;;;;;;10.50;7.65;;;;;;;;;;10275450;28;20049;-66
2023/01/03 04:45:08;;;;;;;8.88;7.78;;;;;;;;;;10268115;28;20081;-66
2023/01/03 04:50:06;;;;;;;13.50;9.05;;;;;;;;;;10260959;28;20101;-66
2023/01/03 04:55:05;;;;;;;19.80;8.25;;;;;;;;;;10269679;28;20069;-66
2023/01/03 05:00:04;;;;;;;9.20;7.45;;;;;;;;;;10250718;28;20045;-65
2023/01/03 05:05:05;;;;;;;11.23;8.00;;;;;;;;;;10270675;28;20124;-66
2023/01/03 05:10:03;;;;;;;9.20;8.15;;;;;;;;;;10268075;28;20343;-66
2023/01/03 05:15:01;;;;;;;10.30;6.97;;;;;;;;;;10267121;28;20049;-65
2023/01/03 05:30:32;;;;;;;8.70;7.90;;;;;;;;;;10256172;28;20075;-67
2023/01/03 05:35:30;;;;;;;10.02;8.35;;;;;;;;;;10265991;28;20087;-66
2023/01/03 05:40:30;;;;;;;8.35;7.40;;;;;;;;;;10267160;28;20402;-66
2023/01/03 05:45:36;;;;;;;9.20;7.82;;;;;;;;;;10262240;28;20079;-65
2023/01/03 05:50:34;;;;;;;9.13;7.60;;;;;;;;;;10262329;28;20077;-67
2023/01/03 05:55:35;;;;;;;8.35;7.53;;;;;;;;;;10263922;28;20069;-67
2023/01/03 06:00:33;;;;;;;8.32;7.47;;;;;;;;;;10265294;28;20462;-67
2023/01/03 06:05:31;;;;;;;8.70;7.80;;;;;;;;;;10266110;28;20434;-66
2023/01/03 06:10:30;;;;;;;8.60;7.65;;;;;;;;;;10265528;28;20073;-66
2023/01/03 06:15:30;;;;;;;9.57;7.95;;;;;;;;;;10266415;28;20140;-65
2023/01/03 06:20:29;;;;;;;9.77;8.38;;;;;;;;;;10264817;28;20060;-66
2023/01/03 06:25:27;;;;;;;9.75;8.48;;;;;;;;;;10262448;28;20095;-66
2023/01/03 06:30:25;;;;;;;8.13;7.05;;;;;;;;;;10259136;28;20478;-66
2023/01/03 06:35:25;;;;;;;7.75;6.95;;;;;;;;;;10261066;28;20095;-65
2023/01/03 06:40:23;;;;;;;10.18;8.77;;;;;;;;;;10262796;28;20060;-65
2023/01/03 06:56:02;;;;;;;9.75;8.05;;;;;;;;;;10264453;28;20045;-66
2023/01/03 07:01:02;;;;;;;7.68;6.85;;;;;;;;;;10265604;28;20186;-67
2023/01/03 07:06:02;;;;;;;10.07;8.02;;;;;;;;;;10265534;28;20083;-67
2023/01/03 07:11:00;;;;;;;9.25;7.70;;;;;;;;;;10252704;28;20040;-66
2023/01/03 07:15:58;;;;;;;11.57;8.52;;;;;;;;;;10265860;28;20088;-67
2023/01/03 07:20:57;;;;;;;11.25;7.72;;;;;;;;;;10265336;28;20080;-67
2023/01/03 07:25:56;;;;;;;11.77;8.18;;;;;;;;;;10264498;28;20113;-66
2023/01/03 07:30:59;;;;;;;14.10;9.23;;;;;;;;;;10265534;28;20044;-67
2023/01/03 07:35:59;;;;;;;11.68;9.32;;;;;;;;;;10255906;28;20041;-67
2023/01/03 07:41:07;;;;;;;12.60;8.27;;;;;;;;;;10271545;28;20065;-66
2023/01/03 07:46:07;;;;;;;10.15;8.45;;;;;;;;;;10272772;28;20121;-67
2023/01/03 07:51:05;;;;;;;10.63;8.75;;;;;;;;;;10269872;28;20048;-67
2023/01/03 07:56:05;;;;;;;12.05;9.00;;;;;;;;;;10269826;28;20458;-65
2023/01/03 08:01:12;;;;;;;10.52;8.27;;;;;;;;;;10269604;28;20435;-65
2023/01/03 08:06:12;;;;;;;9.05;7.80;;;;;;;;;;10269488;28;20106;-65
2023/01/03 08:16:28;;;;;;;9.60;7.50;;;;;;;;;;10268069;28;20447;-67
2023/01/03 08:21:26;;;;;;;9.15;7.80;;;;;;;;;;10269263;28;20162;-65
2023/01/03 08:26:24;;;;;;;8.93;7.45;;;;;;;;;;10269153;28;20072;-66
2023/01/03 08:31:25;;;;;;;8.85;7.72;;;;;;;;;;10269526;28;20065;-66
2023/01/03 08:36:25;;;;;;;12.50;9.98;;;;;;;;;;10269420;28;20069;-67
2023/01/03 08:41:26;;;;;;;20.08;16.27;;;;;;;;;;10271466;28;20426;-66
2023/01/03 08:46:24;;;;;;;25.48;21.92;;;;;;;;;;10268144;28;20501;-67
2023/01/03 08:51:23;;;;;;;18.10;16.10;;;;;;;;;;10265966;28;20388;-67
2023/01/03 08:56:23;;;;;;;27.38;20.25;;;;;;;;;;10266172;28;20560;-67
2023/01/03 09:01:21;;;;;;;33.58;23.58;;;;;;;;;;10265722;28;20075;-67
2023/01/03 09:06:20;;;;;;;29.08;22.73;;;;;;;;;;10270109;28;20083;-68
2023/01/03 09:11:18;;;;;;;26.23;19.38;;;;;;;;;;10268089;28;20117;-67
2023/01/03 09:16:19;;;;;;;20.45;16.58;;;;;;;;;;10267941;28;20435;-67
2023/01/03 09:21:17;;;;;;;20.33;13.93;;;;;;;;;;10266133;28;20052;-67
2023/01/03 09:26:15;;;;;;;18.55;13.88;;;;;;;;;;10268897;28;20125;-67
2023/01/03 09:31:14;;;;;;;21.17;15.50;;;;;;;;;;10267748;28;20065;-67
2023/01/03 09:36:13;;;;;;;13.40;10.60;;;;;;;;;;10267710;28;20037;-68
2023/01/03 09:41:15;;;;;;;23.27;15.32;;;;;;;;;;10248302;28;20089;-67
2023/01/03 09:46:15;;;;;;;13.00;11.60;;;;;;;;;;10266323;28;20084;-67
2023/01/03 10:07:19;;;;;;;15.10;10.57;;;;;;;;;;10263137;28;20430;-67
2023/01/03 10:12:21;;;;;;;13.00;10.15;;;;;;;;;;10261364;28;20109;-66
2023/01/03 10:17:22;;;;;;;12.00;9.68;;;;;;;;;;10260898;28;20095;-67
2023/01/03 10:22:24;;;;;;;14.00;10.27;;;;;;;;;;10265526;28;20061;-66
2023/01/03 10:27:24;;;;;;;15.65;10.27;;;;;;;;;;10264323;28;20049;-67
2023/01/03 10:32:32;;;;;;;17.95;10.77;;;;;;;;;;10266411;28;20065;-67
2023/01/03 10:37:32;;;;;;;11.85;9.63;;;;;;;;;;10264278;28;20037;-67
2023/01/03 10:42:31;;;;;;;13.38;9.13;;;;;;;;;;10253411;28;20065;-67
2023/01/03 10:47:29;;;;;;;12.68;10.48;;;;;;;;;;10265547;28;20068;-66
2023/01/03 10:52:30;;;;;;;14.00;10.68;;;;;;;;;;10263770;28;20045;-66
2023/01/03 10:57:42;;;;;;;14.50;8.75;;;;;;;;;;10261630;28;20064;-69
2023/01/03 11:02:43;;;;;;;11.63;9.43;;;;;;;;;;10262381;28;20374;-70
2023/01/03 11:07:42;;;;;;;11.35;8.70;;;;;;;;;;10262308;28;20120;-67
2023/01/03 11:12:42;;;;;;;9.93;8.93;;;;;;;;;;10273237;28;20469;-66
2023/01/03 11:17:52;;;;;;;13.40;9.57;;;;;;;;;;10271933;28;20079;-67
2023/01/03 11:22:54;;;;;;;22.83;17.08;;;;;;;;;;10273774;28;20085;-66
2023/01/03 11:28:00;;;;;;;13.50;11.20;;;;;;;;;;10272936;28;20083;-66
2023/01/03 11:33:05;;;;;;;11.13;9.55;;;;;;;;;;10252222;28;20057;-66
2023/01/03 11:38:09;;;;;;;16.98;11.15;;;;;;;;;;10270277;28;20084;-67
2023/01/03 11:43:19;;;;;;;15.95;10.52;;;;;;;;;;10271322;28;20044;-67
2023/01/03 11:48:27;;;;;;;13.63;11.38;;;;;;;;;;10260810;28;20087;-65
2023/01/03 11:53:32;;;;;;;9.95;8.95;;;;;;;;;;10269481;28;20374;-65
2023/01/03 11:58:46;;;;;;;11.90;10.23;;;;;;;;;;10266494;28;20116;-66
2023/01/03 12:03:53;;;;;;;15.77;11.57;;;;;;;;;;10267407;28;20084;-65
2023/01/03 12:08:57;;;;;;;17.70;12.13;;;;;;;;;;10266476;28;20092;-65
2023/01/03 12:14:00;;;;;;;13.48;11.85;;;;;;;;;;10264970;28;20473;-66
2023/01/03 12:19:00;;;;;;;11.23;9.75;;;;;;;;;;10268926;28;20415;-65
2023/01/03 12:24:11;;;;;;;14.82;11.00;;;;;;;;;;10269414;28;20115;-64
2023/01/03 12:29:15;;;;;;;15.05;12.98;;;;;;;;;;10269364;28;20077;-65
2023/01/03 12:34:18;;;;;;;13.32;11.73;;;;;;;;;;10262377;28;20044;-64
2023/01/03 12:39:26;;;;;;;13.65;11.18;;;;;;;;;;10268197;28;20072;-65
2023/01/03 12:44:35;;;;;;;17.50;12.35;;;;;;;;;;10267022;28;20116;-65
2023/01/03 12:49:35;;;;;;;15.02;12.10;;;;;;;;;;10268639;28;20092;-65
2023/01/03 12:54:40;;;;;;;16.48;13.93;;;;;;;;;;10267802;28;20462;-64
2023/01/03 12:59:46;;;;;;;14.77;11.97;;;;;;;;;;10266534;28;20057;-65
2023/01/03 13:04:45;;;;;;;13.95;12.35;;;;;;;;;;10270223;28;20283;-64
2023/01/03 13:09:45;;;;;;;19.88;14.50;;;;;;;;;;10263222;28;20159;-64
2023/01/03 13:14:53;;;;;;;18.75;15.45;;;;;;;;;;10267919;28;20466;-65
2023/01/03 13:19:55;;;;;;;18.75;15.48;;;;;;;;;;10268834;28;20085;-66
2023/01/03 13:24:53;;;;;;;17.52;14.05;;;;;;;;;;10257561;28;20415;-66
2023/01/03 13:29:57;;;;;;;17.63;14.15;;;;;;;;;;10265810;28;20068;-66
2023/01/03 13:35:16;;;;;;;17.97;14.67;;;;;;;;;;10268193;28;20056;-65
2023/01/03 13:40:24;;;;;;;13.57;12.18;;;;;;;;;;10262080;28;20482;-66
2023/01/03 13:45:52;;;;;;;16.30;14.32;;;;;;;;;;10267275;28;20075;-66
2023/01/03 13:51:09;;;;;;;20.83;16.42;;;;;;;;;;10267062;28;20080;-66
2023/01/03 13:56:23;;;;;;;36.35;28.35;;;;;;;;;;10327272;27;20401;-65
2023/01/03 14:01:28;;;;;;;36.50;28.20;;;;;;;;;;10341066;28;20458;-66
2023/01/03 14:06:51;;;;;;;41.42;34.05;;;;;;;;;;10340267;28;20040;-65
2023/01/03 14:12:02;;;;;;;38.65;31.25;;;;;;;;;;10339561;28;20075;-66
2023/01/03 14:17:02;;;;;;;34.70;28.88;;;;;;;;;;10340398;28;20085;-65
2023/01/03 14:22:01;;;;;;;36.88;27.33;;;;;;;;;;10340680;28;20044;-66
2023/01/03 14:27:22;;;;;;;28.90;23.15;;;;;;;;;;10339461;28;20155;-66
2023/01/03 14:32:21;;;;;;;46.97;34.53;;;;;;;;;;10338014;28;20079;-66
2023/01/03 14:37:20;;;;;;;32.33;26.17;;;;;;;;;;10340411;28;20067;-66
2023/01/03 14:42:19;;;;;;;33.55;27.35;;;;;;;;;;10342644;28;20420;-66
2023/01/03 14:47:18;;;;;;;57.70;48.40;;;;;;;;;;10339612;28;20493;-67
2023/01/03 14:52:19;;;;;;;44.38;38.55;;;;;;;;;;10339058;28;20510;-66
2023/01/03 14:57:18;;;;;;;35.65;29.67;;;;;;;;;;10339250;28;20450;-66
2023/01/03 15:02:18;;;;;;;38.13;32.75;;;;;;;;;;10337820;28;20383;-66
2023/01/03 15:07:24;;;;;;;45.03;37.67;;;;;;;;;;10312958;28;20079;-67
2023/01/03 15:12:22;;;;;;;47.03;41.72;;;;;;;;;;10311049;28;20083;-66
2023/01/03 15:17:25;;;;;;;49.50;40.88;;;;;;;;;;10309864;28;20049;-66
2023/01/03 15:22:24;;;;;;;61.80;51.55;;;;;;;;;;10309541;28;20049;-66
2023/01/03 15:27:47;;;;;;;105.65;74.35;;;;;;;;;;10310180;28;20033;-66
2023/01/03 15:32:50;;;;;;;61.03;44.63;;;;;;;;;;10287968;28;20799;-65
2023/01/03 15:37:52;;;;;;;45.47;35.60;;;;;;;;;;10283975;28;20068;-65
2023/01/03 15:48:09;;;;;;;69.72;53.15;;;;;;;;;;10272753;28;20091;-65
2023/01/03 15:53:19;;;;;;;65.72;50.38;;;;;;;;;;10284532;28;20056;-65
2023/01/03 15:58:17;;;;;;;51.92;42.30;;;;;;;;;;10268276;28;20075;-65
2023/01/03 16:03:17;;;;;;;35.53;30.40;;;;;;;;;;10272565;28;20064;-65
2023/01/03 16:08:26;;;;;;;57.63;42.60;;;;;;;;;;10296090;28;20091;-65
2023/01/03 16:13:25;;;;;;;68.25;52.13;;;;;;;;;;10289945;28;20107;-65
2023/01/03 16:18:29;;;;;;;44.92;36.92;;;;;;;;;;10305810;28;20489;-66
2023/01/03 16:23:29;;;;;;;41.13;33.45;;;;;;;;;;10294375;28;20049;-65
2023/01/03 16:28:27;;;;;;;50.70;40.05;;;;;;;;;;10295897;28;20056;-65
2023/01/03 16:33:28;;;;;;;46.10;39.28;;;;;;;;;;10307683;28;20051;-66
2023/01/03 16:38:26;;;;;;;38.50;32.90;;;;;;;;;;10308370;28;20071;-65
2023/01/03 16:43:25;;;;;;;64.32;53.72;;;;;;;;;;10307500;28;20124;-65
2023/01/03 16:48:24;;;;;;;42.92;36.17;;;;;;;;;;10308402;28;20353;-65
2023/01/03 16:53:31;;;;;;;33.58;28.60;;;;;;;;;;10308986;28;20080;-65
2023/01/03 16:58:30;;;;;;;49.72;44.70;;;;;;;;;;10308271;28;20048;-66
2023/01/03 17:03:28;;;;;;;41.95;37.33;;;;;;;;;;10308006;28;20051;-65
2023/01/03 17:08:32;;;;;;;35.65;28.70;;;;;;;;;;10307471;28;20085;-65
2023/01/03 17:13:32;;;;;;;40.85;31.02;;;;;;;;;;10308245;28;20064;-65
2023/01/03 17:18:31;;;;;;;60.67;45.22;;;;;;;;;;10309231;28;20362;-65
2023/01/03 17:23:33;;;;;;;55.13;39.97;;;;;;;;;;10306909;28;20040;-66
2023/01/03 17:28:32;;;;;;;79.03;57.88;;;;;;;;;;10306857;28;20083;-65
2023/01/03 17:33:30;;;;;;;67.55;53.33;;;;;;;;;;10307544;28;20087;-65
2023/01/03 17:38:33;;;;;;;38.30;31.65;;;;;;;;;;10308315;28;20048;-65
2023/01/03 17:43:31;;;;;;;33.08;26.80;;;;;;;;;;10306859;28;20092;-65
2023/01/03 17:53:48;;;;;;;30.95;25.10;;;;;;;;;;10292869;28;20167;-65
2023/01/03 17:58:48;;;;;;;31.33;25.45;;;;;;;;;;10307415;28;20390;-66
2023/01/03 18:03:52;;;;;;;35.97;29.02;;;;;;;;;;10306800;28;20045;-66
2023/01/03 18:08:54;;;;;;;28.35;20.58;;;;;;;;;;10306839;28;20080;-66
2023/01/03 18:13:52;;;;;;;23.00;17.13;;;;;;;;;;10304919;28;20446;-65
2023/01/03 18:18:50;;;;;;;20.60;17.05;;;;;;;;;;10305986;28;20045;-66
2023/01/03 18:23:53;;;;;;;26.08;21.88;;;;;;;;;;10305654;28;20060;-64
2023/01/03 18:28:51;;;;;;;30.00;26.35;;;;;;;;;;10283639;28;20041;-65
2023/01/03 18:33:49;;;;;;;42.10;33.33;;;;;;;;;;10286629;28;20602;-65
2023/01/03 18:38:47;;;;;;;42.03;33.05;;;;;;;;;;10260923;28;20091;-65
2023/01/03 18:43:47;;;;;;;87.78;55.35;;;;;;;;;;10270336;28;20125;-65
2023/01/03 18:48:45;;;;;;;46.83;34.65;;;;;;;;;;10273981;28;20131;-65
2023/01/03 18:53:45;;;;;;;46.92;33.60;;;;;;;;;;10271611;28;20080;-66
2023/01/03 18:58:43;;;;;;;63.67;44.95;;;;;;;;;;10279749;28;20064;-65
2023/01/03 19:03:43;;;;;;;54.15;43.97;;;;;;;;;;10284117;28;20060;-65
2023/01/03 19:08:42;;;;;;;95.65;69.25;;;;;;;;;;10283718;28;20064;-65
2023/01/03 19:13:50;;;;;;;85.35;61.47;;;;;;;;;;10285056;28;20175;-65
2023/01/03 19:18:51;;;;;;;71.60;53.25;;;;;;;;;;10269740;28;20063;-65
2023/01/03 19:23:55;;;;;;;41.03;33.75;;;;;;;;;;10270456;28;20076;-65
2023/01/03 19:28:56;;;;;;;30.38;24.45;;;;;;;;;;10269487;28;20064;-65
2023/01/03 19:33:56;;;;;;;27.30;21.30;;;;;;;;;;10279400;28;20443;-66
2023/01/03 19:38:54;;;;;;;48.25;40.50;;;;;;;;;;10269051;28;20064;-66
2023/01/03 19:43:52;;;;;;;23.95;19.85;;;;;;;;;;10268137;28;20432;-65
2023/01/03 19:48:51;;;;;;;24.27;21.40;;;;;;;;;;10269127;28;20061;-64
2023/01/03 19:53:50;;;;;;;21.58;18.15;;;;;;;;;;10268617;28;20758;-64
2023/01/03 19:58:49;;;;;;;23.45;18.73;;;;;;;;;;10270348;28;20116;-64
2023/01/03 20:03:47;;;;;;;32.08;26.52;;;;;;;;;;10277415;28;20111;-64
2023/01/03 20:08:47;;;;;;;28.65;23.48;;;;;;;;;;10281152;28;20045;-64
2023/01/03 20:13:46;;;;;;;31.60;23.02;;;;;;;;;;10296506;28;20109;-64
2023/01/03 20:18:46;;;;;;;31.15;24.95;;;;;;;;;;10309392;28;20044;-64
2023/01/03 20:23:46;;;;;;;25.10;22.27;;;;;;;;;;10308967;28;20072;-64
2023/01/03 20:28:46;;;;;;;32.97;25.77;;;;;;;;;;10300090;28;20086;-64
2023/01/03 20:33:44;;;;;;;48.00;32.17;;;;;;;;;;10265073;28;20095;-64
2023/01/03 20:38:44;;;;;;;43.30;33.08;;;;;;;;;;10304718;28;20124;-64
2023/01/03 20:43:42;;;;;;;50.05;36.42;;;;;;;;;;10305653;28;20103;-65
2023/01/03 20:48:42;;;;;;;37.65;29.75;;;;;;;;;;10290945;28;20064;-64
2023/01/03 20:53:40;;;;;;;42.28;31.67;;;;;;;;;;10288260;28;20117;-65
2023/01/03 20:58:41;;;;;;;44.95;33.53;;;;;;;;;;10267662;28;20076;-67
2023/01/03 21:03:39;;;;;;;36.72;28.45;;;;;;;;;;10264958;28;20109;-64
2023/01/03 21:08:54;;;;;;;35.63;27.77;;;;;;;;;;10270710;28;20111;-66
2023/01/03 21:13:52;;;;;;;29.40;23.00;;;;;;;;;;10293331;28;20055;-64
2023/01/03 21:18:50;;;;;;;29.75;24.40;;;;;;;;;;10283940;28;20131;-66
2023/01/03 21:23:50;;;;;;;28.30;23.13;;;;;;;;;;10302955;28;20045;-63
2023/01/03 21:28:48;;;;;;;25.70;21.15;;;;;;;;;;10265996;28;20475;-64
2023/01/03 21:33:46;;;;;;;25.30;20.08;;;;;;;;;;10266539;28;20037;-64
2023/01/03 21:38:45;;;;;;;19.75;16.30;;;;;;;;;;10304744;28;20068;-65
2023/01/03 21:43:44;;;;;;;18.80;15.10;;;;;;;;;;10305827;28;20100;-66
2023/01/03 21:48:43;;;;;;;17.30;14.90;;;;;;;;;;10304965;28;20045;-65
2023/01/03 21:53:42;;;;;;;36.75;23.15;;;;;;;;;;10293145;28;20052;-63
2023/01/03 21:58:40;;;;;;;18.80;15.57;;;;;;;;;;10277528;28;20078;-65
2023/01/03 22:08:56;;;;;;;21.08;14.85;;;;;;;;;;10289348;28;20040;-64
2023/01/03 22:13:55;;;;;;;15.30;13.68;;;;;;;;;;10269959;28;20443;-65
2023/01/03 22:18:54;;;;;;;17.58;15.45;;;;;;;;;;10286465;28;20454;-66
2023/01/03 22:23:54;;;;;;;20.38;16.80;;;;;;;;;;10279068;28;20080;-65
2023/01/03 22:28:52;;;;;;;17.45;13.45;;;;;;;;;;10310353;28;20049;-64
2023/01/03 22:33:50;;;;;;;19.75;12.40;;;;;;;;;;10313034;28;20072;-65
2023/01/03 22:38:51;;;;;;;13.02;11.27;;;;;;;;;;10312861;28;20079;-65
2023/01/03 22:43:52;;;;;;;13.40;11.45;;;;;;;;;;10311350;28;20095;-65
2023/01/03 22:48:52;;;;;;;14.48;12.00;;;;;;;;;;10293987;28;20075;-65
2023/01/03 22:53:51;;;;;;;14.20;12.68;;;;;;;;;;10308063;28;20076;-65
2023/01/03 22:58:50;;;;;;;13.30;11.05;;;;;;;;;;10304770;28;20075;-65
2023/01/03 23:03:48;;;;;;;12.20;10.80;;;;;;;;;;10279721;28;20072;-66
2023/01/03 23:08:52;;;;;;;13.63;10.55;;;;;;;;;;10310608;28;20051;-65
2023/01/03 23:13:52;;;;;;;15.25;10.90;;;;;;;;;;10311079;28;20044;-65
2023/01/03 23:18:51;;;;;;;11.95;10.75;;;;;;;;;;10284955;28;20128;-66
2023/01/03 23:23:49;;;;;;;13.60;11.82;;;;;;;;;;10311085;28;20798;-64
2023/01/03 23:28:47;;;;;;;13.75;10.32;;;;;;;;;;10310702;28;20067;-65
2023/01/03 23:33:47;;;;;;;14.95;10.65;;;;;;;;;;10309964;28;20385;-65
2023/01/03 23:38:45;;;;;;;18.38;13.18;;;;;;;;;;10308900;28;20076;-66
2023/01/03 23:43:43;;;;;;;12.63;11.32;;;;;;;;;;10310556;28;20076;-66
2023/01/03 23:48:42;;;;;;;16.35;12.90;;;;;;;;;;10309917;28;20041;-65
2023/01/03 23:53:42;;;;;;;15.73;11.25;;;;;;;;;;10309283;28;20061;-65
2023/01/03 23:58:41;;;;;;;16.60;11.68;;;;;;;;;;10310120;28;20125;-65
